sensor_id;sensor_type;location;lat;lon;timestamp;P1;durP1;ratioP1;P2;durP2;ratioP2
47635;SDS011;33364;50.766;15.338;2023-08-30T00:00:13;5.43;;;1.67;;
47635;SDS011;33364;50.766;15.338;2023-08-30T00:02:59;3.95;;;2.30;;
47635;SDS011;33364;50.766;15.338;2023-08-30T00:05:25;6.95;;;2.17;;
47635;SDS011;33364;50.766;15.338;2023-08-30T00:07:56;5.97;;;2.65;;
47635;SDS011;33364;50.766;15.338;2023-08-30T00:10:21;4.00;;;2.20;;
47635;SDS011;33364;50.766;15.338;2023-08-30T00:12:47;3.88;;;2.05;;
47635;SDS011;33364;50.766;15.338;2023-08-30T00:15:13;5.13;;;2.42;;
47635;SDS011;33364;50.766;15.338;2023-08-30T00:17:39;5.25;;;2.17;;
47635;SDS011;33364;50.766;15.338;2023-08-30T00:20:05;3.40;;;1.85;;
47635;SDS011;33364;50.766;15.338;2023-08-30T00:22:32;5.88;;;2.22;;
47635;SDS011;33364;50.766;15.338;2023-08-30T00:24:58;3.35;;;2.38;;
47635;SDS011;33364;50.766;15.338;2023-08-30T00:27:25;3.55;;;1.85;;
47635;SDS011;33364;50.766;15.338;2023-08-30T00:29:51;2.78;;;1.65;;
47635;SDS011;33364;50.766;15.338;2023-08-30T00:32:17;5.75;;;1.67;;
47635;SDS011;33364;50.766;15.338;2023-08-30T00:34:42;3.03;;;1.33;;
47635;SDS011;33364;50.766;15.338;2023-08-30T00:37:08;8.00;;;2.08;;
47635;SDS011;33364;50.766;15.338;2023-08-30T00:39:34;3.35;;;1.90;;
47635;SDS011;33364;50.766;15.338;2023-08-30T00:42:04;6.53;;;1.90;;
47635;SDS011;33364;50.766;15.338;2023-08-30T00:44:33;3.75;;;1.70;;
47635;SDS011;33364;50.766;15.338;2023-08-30T00:47:00;2.67;;;1.45;;
47635;SDS011;33364;50.766;15.338;2023-08-30T00:49:26;3.38;;;1.88;;
47635;SDS011;33364;50.766;15.338;2023-08-30T00:51:53;2.42;;;1.40;;
47635;SDS011;33364;50.766;15.338;2023-08-30T00:54:19;3.63;;;1.60;;
47635;SDS011;33364;50.766;15.338;2023-08-30T00:56:46;2.83;;;1.25;;
47635;SDS011;33364;50.766;15.338;2023-08-30T00:59:13;3.17;;;1.50;;
47635;SDS011;33364;50.766;15.338;2023-08-30T01:01:39;2.00;;;1.27;;
47635;SDS011;33364;50.766;15.338;2023-08-30T01:04:06;5.53;;;1.50;;
47635;SDS011;33364;50.766;15.338;2023-08-30T01:06:32;2.80;;;1.27;;
47635;SDS011;33364;50.766;15.338;2023-08-30T01:08:57;3.20;;;1.30;;
47635;SDS011;33364;50.766;15.338;2023-08-30T01:14:08;5.57;;;1.60;;
47635;SDS011;33364;50.766;15.338;2023-08-30T01:16:41;2.28;;;1.00;;
47635;SDS011;33364;50.766;15.338;2023-08-30T01:19:18;1.73;;;1.00;;
47635;SDS011;33364;50.766;15.338;2023-08-30T01:22:14;5.57;;;1.02;;
47635;SDS011;33364;50.766;15.338;2023-08-30T01:24:45;1.90;;;0.75;;
47635;SDS011;33364;50.766;15.338;2023-08-30T01:27:20;0.65;;;0.55;;
47635;SDS011;33364;50.766;15.338;2023-08-30T01:29:47;1.52;;;0.80;;
47635;SDS011;33364;50.766;15.338;2023-08-30T01:32:15;3.40;;;0.52;;
47635;SDS011;33364;50.766;15.338;2023-08-30T01:34:41;3.60;;;0.77;;
47635;SDS011;33364;50.766;15.338;2023-08-30T01:37:11;4.40;;;0.80;;
47635;SDS011;33364;50.766;15.338;2023-08-30T01:39:39;3.58;;;0.90;;
47635;SDS011;33364;50.766;15.338;2023-08-30T01:42:07;3.53;;;0.70;;
47635;SDS011;33364;50.766;15.338;2023-08-30T01:44:34;1.70;;;0.80;;
47635;SDS011;33364;50.766;15.338;2023-08-30T01:47:00;3.72;;;0.90;;
47635;SDS011;33364;50.766;15.338;2023-08-30T01:49:29;1.23;;;0.63;;
47635;SDS011;33364;50.766;15.338;2023-08-30T01:51:59;1.70;;;0.70;;
47635;SDS011;33364;50.766;15.338;2023-08-30T01:54:26;1.25;;;0.80;;
47635;SDS011;33364;50.766;15.338;2023-08-30T01:56:54;2.03;;;0.70;;
47635;SDS011;33364;50.766;15.338;2023-08-30T01:59:20;5.35;;;0.70;;
47635;SDS011;33364;50.766;15.338;2023-08-30T02:01:46;2.80;;;0.80;;
47635;SDS011;33364;50.766;15.338;2023-08-30T02:04:11;0.80;;;0.50;;
47635;SDS011;33364;50.766;15.338;2023-08-30T02:12:14;2.10;;;0.70;;
47635;SDS011;33364;50.766;15.338;2023-08-30T02:14:51;2.88;;;0.45;;
47635;SDS011;33364;50.766;15.338;2023-08-30T02:17:18;1.75;;;0.50;;
47635;SDS011;33364;50.766;15.338;2023-08-30T02:19:44;5.60;;;0.50;;
47635;SDS011;33364;50.766;15.338;2023-08-30T02:22:11;1.20;;;0.40;;
47635;SDS011;33364;50.766;15.338;2023-08-30T02:24:37;0.80;;;0.50;;
47635;SDS011;33364;50.766;15.338;2023-08-30T02:27:03;1.55;;;0.45;;
47635;SDS011;33364;50.766;15.338;2023-08-30T02:29:29;0.75;;;0.35;;
47635;SDS011;33364;50.766;15.338;2023-08-30T02:31:55;1.15;;;0.30;;
47635;SDS011;33364;50.766;15.338;2023-08-30T02:34:20;0.40;;;0.40;;
47635;SDS011;33364;50.766;15.338;2023-08-30T02:36:46;2.78;;;0.47;;
47635;SDS011;33364;50.766;15.338;2023-08-30T02:39:13;1.67;;;0.30;;
47635;SDS011;33364;50.766;15.338;2023-08-30T02:41:39;0.63;;;0.50;;
47635;SDS011;33364;50.766;15.338;2023-08-30T02:44:07;0.30;;;0.30;;
47635;SDS011;33364;50.766;15.338;2023-08-30T02:46:33;4.50;;;0.40;;
47635;SDS011;33364;50.766;15.338;2023-08-30T02:48:59;2.67;;;0.70;;
47635;SDS011;33364;50.766;15.338;2023-08-30T02:51:25;1.02;;;0.47;;
47635;SDS011;33364;50.766;15.338;2023-08-30T02:53:51;0.30;;;0.30;;
47635;SDS011;33364;50.766;15.338;2023-08-30T02:56:16;2.15;;;0.35;;
47635;SDS011;33364;50.766;15.338;2023-08-30T02:58:42;0.98;;;0.55;;
47635;SDS011;33364;50.766;15.338;2023-08-30T03:01:08;1.65;;;0.45;;
47635;SDS011;33364;50.766;15.338;2023-08-30T03:03:34;0.63;;;0.32;;
47635;SDS011;33364;50.766;15.338;2023-08-30T03:06:01;0.50;;;0.32;;
47635;SDS011;33364;50.766;15.338;2023-08-30T03:08:27;3.20;;;0.30;;
47635;SDS011;33364;50.766;15.338;2023-08-30T03:10:53;1.52;;;0.32;;
47635;SDS011;33364;50.766;15.338;2023-08-30T03:13:19;0.30;;;0.30;;
47635;SDS011;33364;50.766;15.338;2023-08-30T03:15:45;0.90;;;0.30;;
47635;SDS011;33364;50.766;15.338;2023-08-30T03:18:11;1.23;;;0.40;;
47635;SDS011;33364;50.766;15.338;2023-08-30T03:20:37;0.43;;;0.30;;
47635;SDS011;33364;50.766;15.338;2023-08-30T03:23:02;1.45;;;0.30;;
47635;SDS011;33364;50.766;15.338;2023-08-30T03:25:29;5.05;;;0.40;;
47635;SDS011;33364;50.766;15.338;2023-08-30T03:27:55;0.30;;;0.30;;
47635;SDS011;33364;50.766;15.338;2023-08-30T03:30:21;0.68;;;0.30;;
47635;SDS011;33364;50.766;15.338;2023-08-30T03:32:46;1.83;;;0.50;;
47635;SDS011;33364;50.766;15.338;2023-08-30T03:35:12;1.65;;;0.70;;
47635;SDS011;33364;50.766;15.338;2023-08-30T03:37:40;5.60;;;3.42;;
47635;SDS011;33364;50.766;15.338;2023-08-30T03:40:06;3.35;;;1.85;;
47635;SDS011;33364;50.766;15.338;2023-08-30T03:42:32;7.07;;;4.88;;
47635;SDS011;33364;50.766;15.338;2023-08-30T03:44:58;11.00;;;6.20;;
47635;SDS011;33364;50.766;15.338;2023-08-30T03:47:24;12.05;;;7.93;;
47635;SDS011;33364;50.766;15.338;2023-08-30T03:49:49;17.77;;;11.77;;
47635;SDS011;33364;50.766;15.338;2023-08-30T03:52:15;17.40;;;12.80;;
47635;SDS011;33364;50.766;15.338;2023-08-30T03:54:41;12.20;;;8.80;;
47635;SDS011;33364;50.766;15.338;2023-08-30T03:57:07;11.02;;;7.72;;
47635;SDS011;33364;50.766;15.338;2023-08-30T03:59:33;6.05;;;4.65;;
47635;SDS011;33364;50.766;15.338;2023-08-30T04:01:58;10.63;;;4.95;;
47635;SDS011;33364;50.766;15.338;2023-08-30T04:04:24;4.95;;;2.60;;
47635;SDS011;33364;50.766;15.338;2023-08-30T04:06:50;3.83;;;2.05;;
47635;SDS011;33364;50.766;15.338;2023-08-30T04:09:16;3.03;;;1.67;;
47635;SDS011;33364;50.766;15.338;2023-08-30T04:11:42;3.17;;;1.75;;
47635;SDS011;33364;50.766;15.338;2023-08-30T04:14:08;2.95;;;2.20;;
47635;SDS011;33364;50.766;15.338;2023-08-30T04:16:34;2.63;;;1.90;;
47635;SDS011;33364;50.766;15.338;2023-08-30T04:18:59;1.98;;;0.90;;
47635;SDS011;33364;50.766;15.338;2023-08-30T04:21:25;1.42;;;0.80;;
47635;SDS011;33364;50.766;15.338;2023-08-30T04:23:51;0.77;;;0.60;;
47635;SDS011;33364;50.766;15.338;2023-08-30T04:26:17;3.13;;;1.42;;
47635;SDS011;33364;50.766;15.338;2023-08-30T04:28:42;4.65;;;2.00;;
47635;SDS011;33364;50.766;15.338;2023-08-30T04:31:08;4.10;;;1.80;;
47635;SDS011;33364;50.766;15.338;2023-08-30T04:33:34;6.63;;;2.20;;
47635;SDS011;33364;50.766;15.338;2023-08-30T04:35:59;2.40;;;2.00;;
47635;SDS011;33364;50.766;15.338;2023-08-30T04:38:26;1.52;;;1.33;;
47635;SDS011;33364;50.766;15.338;2023-08-30T04:40:56;3.20;;;1.40;;
47635;SDS011;33364;50.766;15.338;2023-08-30T04:43:25;3.72;;;1.48;;
47635;SDS011;33364;50.766;15.338;2023-08-30T04:45:51;1.40;;;1.30;;
47635;SDS011;33364;50.766;15.338;2023-08-30T04:48:17;1.83;;;1.40;;
47635;SDS011;33364;50.766;15.338;2023-08-30T04:50:42;4.75;;;1.20;;
47635;SDS011;33364;50.766;15.338;2023-08-30T04:53:08;2.83;;;0.82;;
47635;SDS011;33364;50.766;15.338;2023-08-30T04:55:34;2.20;;;1.48;;
47635;SDS011;33364;50.766;15.338;2023-08-30T04:58:00;1.98;;;1.42;;
47635;SDS011;33364;50.766;15.338;2023-08-30T05:00:25;2.30;;;1.05;;
47635;SDS011;33364;50.766;15.338;2023-08-30T05:02:51;1.83;;;0.80;;
47635;SDS011;33364;50.766;15.338;2023-08-30T05:05:17;1.75;;;0.80;;
47635;SDS011;33364;50.766;15.338;2023-08-30T05:07:43;1.90;;;0.90;;
47635;SDS011;33364;50.766;15.338;2023-08-30T05:10:09;1.83;;;1.02;;
47635;SDS011;33364;50.766;15.338;2023-08-30T05:12:35;2.50;;;1.40;;
47635;SDS011;33364;50.766;15.338;2023-08-30T05:15:01;2.63;;;0.73;;
47635;SDS011;33364;50.766;15.338;2023-08-30T05:17:27;3.70;;;0.90;;
47635;SDS011;33364;50.766;15.338;2023-08-30T05:19:53;1.85;;;0.82;;
47635;SDS011;33364;50.766;15.338;2023-08-30T05:22:20;2.25;;;0.80;;
47635;SDS011;33364;50.766;15.338;2023-08-30T05:24:45;1.63;;;1.10;;
47635;SDS011;33364;50.766;15.338;2023-08-30T05:27:11;0.82;;;0.60;;
47635;SDS011;33364;50.766;15.338;2023-08-30T05:29:38;0.60;;;0.57;;
47635;SDS011;33364;50.766;15.338;2023-08-30T05:32:04;7.50;;;0.70;;
47635;SDS011;33364;50.766;15.338;2023-08-30T05:34:30;1.13;;;0.60;;
47635;SDS011;33364;50.766;15.338;2023-08-30T05:36:56;2.53;;;0.60;;
47635;SDS011;33364;50.766;15.338;2023-08-30T05:39:22;2.00;;;0.70;;
47635;SDS011;33364;50.766;15.338;2023-08-30T05:41:48;0.85;;;0.63;;
47635;SDS011;33364;50.766;15.338;2023-08-30T05:44:13;0.88;;;0.60;;
47635;SDS011;33364;50.766;15.338;2023-08-30T05:46:39;1.38;;;0.73;;
47635;SDS011;33364;50.766;15.338;2023-08-30T05:49:05;0.88;;;0.63;;
47635;SDS011;33364;50.766;15.338;2023-08-30T05:51:31;0.73;;;0.50;;
47635;SDS011;33364;50.766;15.338;2023-08-30T05:53:56;0.82;;;0.50;;
47635;SDS011;33364;50.766;15.338;2023-08-30T05:56:22;0.50;;;0.50;;
47635;SDS011;33364;50.766;15.338;2023-08-30T05:58:48;0.90;;;0.52;;
47635;SDS011;33364;50.766;15.338;2023-08-30T06:01:14;0.93;;;0.70;;
47635;SDS011;33364;50.766;15.338;2023-08-30T06:03:39;0.50;;;0.50;;
47635;SDS011;33364;50.766;15.338;2023-08-30T06:06:05;1.38;;;0.90;;
47635;SDS011;33364;50.766;15.338;2023-08-30T06:08:31;0.98;;;0.50;;
47635;SDS011;33364;50.766;15.338;2023-08-30T06:10:57;1.63;;;0.60;;
47635;SDS011;33364;50.766;15.338;2023-08-30T06:13:23;1.17;;;0.55;;
47635;SDS011;33364;50.766;15.338;2023-08-30T06:15:52;2.50;;;0.47;;
47635;SDS011;33364;50.766;15.338;2023-08-30T06:18:18;2.42;;;0.40;;
47635;SDS011;33364;50.766;15.338;2023-08-30T06:20:44;0.88;;;0.60;;
47635;SDS011;33364;50.766;15.338;2023-08-30T06:23:11;0.60;;;0.50;;
47635;SDS011;33364;50.766;15.338;2023-08-30T06:25:37;1.02;;;0.50;;
47635;SDS011;33364;50.766;15.338;2023-08-30T06:28:02;0.60;;;0.50;;
47635;SDS011;33364;50.766;15.338;2023-08-30T06:30:29;0.80;;;0.50;;
47635;SDS011;33364;50.766;15.338;2023-08-30T06:32:55;2.90;;;0.82;;
47635;SDS011;33364;50.766;15.338;2023-08-30T06:35:22;1.17;;;0.52;;
47635;SDS011;33364;50.766;15.338;2023-08-30T06:37:48;1.80;;;0.55;;
47635;SDS011;33364;50.766;15.338;2023-08-30T06:40:14;1.95;;;1.02;;
47635;SDS011;33364;50.766;15.338;2023-08-30T06:42:39;1.60;;;1.05;;
47635;SDS011;33364;50.766;15.338;2023-08-30T06:45:05;1.42;;;0.90;;
47635;SDS011;33364;50.766;15.338;2023-08-30T06:47:31;2.78;;;0.98;;
47635;SDS011;33364;50.766;15.338;2023-08-30T06:49:57;2.30;;;1.00;;
47635;SDS011;33364;50.766;15.338;2023-08-30T06:52:24;1.88;;;1.00;;
47635;SDS011;33364;50.766;15.338;2023-08-30T06:54:50;1.42;;;0.80;;
47635;SDS011;33364;50.766;15.338;2023-08-30T06:57:15;2.38;;;1.27;;
47635;SDS011;33364;50.766;15.338;2023-08-30T06:59:41;2.10;;;1.00;;
47635;SDS011;33364;50.766;15.338;2023-08-30T07:02:07;2.38;;;0.70;;
47635;SDS011;33364;50.766;15.338;2023-08-30T07:04:34;0.77;;;0.20;;
47635;SDS011;33364;50.766;15.338;2023-08-30T07:06:59;0.30;;;0.30;;
47635;SDS011;33364;50.766;15.338;2023-08-30T07:09:25;0.57;;;0.10;;
47635;SDS011;33364;50.766;15.338;2023-08-30T07:11:55;0.95;;;0.17;;
47635;SDS011;33364;50.766;15.338;2023-08-30T07:14:21;0.10;;;0.10;;
47635;SDS011;33364;50.766;15.338;2023-08-30T07:16:46;1.10;;;0.30;;
47635;SDS011;33364;50.766;15.338;2023-08-30T07:19:15;0.45;;;0.10;;
47635;SDS011;33364;50.766;15.338;2023-08-30T07:21:41;1.08;;;0.20;;
47635;SDS011;33364;50.766;15.338;2023-08-30T07:24:11;0.20;;;0.20;;
47635;SDS011;33364;50.766;15.338;2023-08-30T07:26:37;0.20;;;0.20;;
47635;SDS011;33364;50.766;15.338;2023-08-30T07:29:03;0.40;;;0.40;;
47635;SDS011;33364;50.766;15.338;2023-08-30T07:31:32;0.32;;;0.32;;
47635;SDS011;33364;50.766;15.338;2023-08-30T07:33:58;0.47;;;0.40;;
47635;SDS011;33364;50.766;15.338;2023-08-30T07:36:28;4.15;;;1.80;;
47635;SDS011;33364;50.766;15.338;2023-08-30T07:38:54;14.57;;;2.70;;
47635;SDS011;33364;50.766;15.338;2023-08-30T07:41:20;2.00;;;0.60;;
47635;SDS011;33364;50.766;15.338;2023-08-30T07:43:46;1.20;;;0.82;;
47635;SDS011;33364;50.766;15.338;2023-08-30T07:46:11;4.88;;;2.75;;
47635;SDS011;33364;50.766;15.338;2023-08-30T07:48:37;0.88;;;0.73;;
47635;SDS011;33364;50.766;15.338;2023-08-30T07:51:03;1.05;;;0.55;;
47635;SDS011;33364;50.766;15.338;2023-08-30T07:53:29;0.93;;;0.80;;
47635;SDS011;33364;50.766;15.338;2023-08-30T07:55:55;1.05;;;0.70;;
47635;SDS011;33364;50.766;15.338;2023-08-30T07:58:21;0.45;;;0.45;;
47635;SDS011;33364;50.766;15.338;2023-08-30T08:00:50;1.58;;;1.00;;
47635;SDS011;33364;50.766;15.338;2023-08-30T08:03:17;2.40;;;1.63;;
47635;SDS011;33364;50.766;15.338;2023-08-30T08:05:43;1.80;;;1.17;;
47635;SDS011;33364;50.766;15.338;2023-08-30T08:08:09;2.92;;;1.50;;
47635;SDS011;33364;50.766;15.338;2023-08-30T08:10:36;1.65;;;1.08;;
47635;SDS011;33364;50.766;15.338;2023-08-30T08:13:02;0.63;;;0.45;;
47635;SDS011;33364;50.766;15.338;2023-08-30T08:15:29;1.98;;;0.90;;
47635;SDS011;33364;50.766;15.338;2023-08-30T08:17:59;1.73;;;1.10;;
47635;SDS011;33364;50.766;15.338;2023-08-30T08:20:28;0.73;;;0.70;;
47635;SDS011;33364;50.766;15.338;2023-08-30T08:22:55;1.42;;;0.43;;
47635;SDS011;33364;50.766;15.338;2023-08-30T08:25:20;0.77;;;0.50;;
47635;SDS011;33364;50.766;15.338;2023-08-30T08:27:49;0.40;;;0.20;;
47635;SDS011;33364;50.766;15.338;2023-08-30T08:30:14;0.55;;;0.45;;
47635;SDS011;33364;50.766;15.338;2023-08-30T08:32:40;3.50;;;2.17;;
47635;SDS011;33364;50.766;15.338;2023-08-30T08:35:06;0.35;;;0.35;;
47635;SDS011;33364;50.766;15.338;2023-08-30T08:37:32;1.20;;;0.50;;
47635;SDS011;33364;50.766;15.338;2023-08-30T08:39:58;1.70;;;0.73;;
47635;SDS011;33364;50.766;15.338;2023-08-30T08:42:24;0.40;;;0.40;;
47635;SDS011;33364;50.766;15.338;2023-08-30T08:44:50;0.60;;;0.60;;
47635;SDS011;33364;50.766;15.338;2023-08-30T08:47:19;0.63;;;0.52;;
47635;SDS011;33364;50.766;15.338;2023-08-30T08:49:45;4.03;;;2.92;;
47635;SDS011;33364;50.766;15.338;2023-08-30T08:52:13;2.83;;;1.65;;
47635;SDS011;33364;50.766;15.338;2023-08-30T08:54:40;1.58;;;1.40;;
47635;SDS011;33364;50.766;15.338;2023-08-30T08:57:06;1.65;;;1.33;;
47635;SDS011;33364;50.766;15.338;2023-08-30T08:59:32;0.80;;;0.60;;
47635;SDS011;33364;50.766;15.338;2023-08-30T09:02:01;1.23;;;1.13;;
47635;SDS011;33364;50.766;15.338;2023-08-30T09:04:30;1.10;;;0.80;;
47635;SDS011;33364;50.766;15.338;2023-08-30T09:06:58;0.65;;;0.40;;
47635;SDS011;33364;50.766;15.338;2023-08-30T09:09:24;2.65;;;1.65;;
47635;SDS011;33364;50.766;15.338;2023-08-30T09:11:50;3.75;;;1.25;;
47635;SDS011;33364;50.766;15.338;2023-08-30T09:14:16;1.88;;;1.50;;
47635;SDS011;33364;50.766;15.338;2023-08-30T09:16:42;1.98;;;1.30;;
47635;SDS011;33364;50.766;15.338;2023-08-30T09:19:08;0.63;;;0.60;;
47635;SDS011;33364;50.766;15.338;2023-08-30T09:21:36;1.52;;;1.15;;
47635;SDS011;33364;50.766;15.338;2023-08-30T09:24:05;1.10;;;1.00;;
47635;SDS011;33364;50.766;15.338;2023-08-30T09:26:32;1.00;;;0.52;;
47635;SDS011;33364;50.766;15.338;2023-08-30T09:29:01;0.93;;;0.70;;
47635;SDS011;33364;50.766;15.338;2023-08-30T09:31:35;0.63;;;0.50;;
47635;SDS011;33364;50.766;15.338;2023-08-30T09:34:01;1.23;;;0.82;;
47635;SDS011;33364;50.766;15.338;2023-08-30T09:36:34;1.30;;;0.68;;
47635;SDS011;33364;50.766;15.338;2023-08-30T09:39:13;1.17;;;0.52;;
47635;SDS011;33364;50.766;15.338;2023-08-30T09:41:46;1.80;;;0.90;;
47635;SDS011;33364;50.766;15.338;2023-08-30T09:44:13;1.10;;;0.80;;
47635;SDS011;33364;50.766;15.338;2023-08-30T09:46:44;0.73;;;0.47;;
47635;SDS011;33364;50.766;15.338;2023-08-30T09:49:11;1.67;;;0.80;;
47635;SDS011;33364;50.766;15.338;2023-08-30T09:51:39;1.75;;;1.08;;
47635;SDS011;33364;50.766;15.338;2023-08-30T09:54:10;5.13;;;4.63;;
47635;SDS011;33364;50.766;15.338;2023-08-30T09:56:41;2.40;;;2.20;;
47635;SDS011;33364;50.766;15.338;2023-08-30T09:59:09;1.45;;;0.80;;
47635;SDS011;33364;50.766;15.338;2023-08-30T10:01:37;2.90;;;1.52;;
47635;SDS011;33364;50.766;15.338;2023-08-30T10:04:03;1.25;;;1.00;;
47635;SDS011;33364;50.766;15.338;2023-08-30T10:06:30;1.05;;;0.60;;
47635;SDS011;33364;50.766;15.338;2023-08-30T10:08:56;1.25;;;0.57;;
47635;SDS011;33364;50.766;15.338;2023-08-30T10:11:24;0.90;;;0.75;;
47635;SDS011;33364;50.766;15.338;2023-08-30T10:13:51;0.50;;;0.50;;
47635;SDS011;33364;50.766;15.338;2023-08-30T10:16:19;0.73;;;0.50;;
47635;SDS011;33364;50.766;15.338;2023-08-30T10:18:49;0.60;;;0.38;;
47635;SDS011;33364;50.766;15.338;2023-08-30T10:21:18;0.57;;;0.45;;
47635;SDS011;33364;50.766;15.338;2023-08-30T10:23:45;1.73;;;1.23;;
47635;SDS011;33364;50.766;15.338;2023-08-30T10:26:16;10.55;;;1.30;;
47635;SDS011;33364;50.766;15.338;2023-08-30T10:28:44;0.80;;;0.50;;
47635;SDS011;33364;50.766;15.338;2023-08-30T10:31:12;2.10;;;0.30;;
47635;SDS011;33364;50.766;15.338;2023-08-30T10:33:48;1.13;;;0.65;;
47635;SDS011;33364;50.766;15.338;2023-08-30T10:36:22;2.20;;;0.93;;
47635;SDS011;33364;50.766;15.338;2023-08-30T10:38:49;1.00;;;0.80;;
47635;SDS011;33364;50.766;15.338;2023-08-30T10:41:19;1.40;;;0.73;;
47635;SDS011;33364;50.766;15.338;2023-08-30T10:43:49;1.02;;;0.70;;
47635;SDS011;33364;50.766;15.338;2023-08-30T10:46:17;1.17;;;0.90;;
47635;SDS011;33364;50.766;15.338;2023-08-30T10:48:42;1.73;;;0.52;;
47635;SDS011;33364;50.766;15.338;2023-08-30T10:51:34;1.30;;;0.80;;
47635;SDS011;33364;50.766;15.338;2023-08-30T10:54:10;1.55;;;0.90;;
47635;SDS011;33364;50.766;15.338;2023-08-30T10:59:19;3.67;;;1.50;;
47635;SDS011;33364;50.766;15.338;2023-08-30T11:01:46;1.30;;;0.80;;
47635;SDS011;33364;50.766;15.338;2023-08-30T11:04:16;3.53;;;2.15;;
47635;SDS011;33364;50.766;15.338;2023-08-30T11:06:44;1.17;;;1.08;;
47635;SDS011;33364;50.766;15.338;2023-08-30T11:09:14;38.65;;;35.10;;
47635;SDS011;33364;50.766;15.338;2023-08-30T11:11:43;34.40;;;31.67;;
47635;SDS011;33364;50.766;15.338;2023-08-30T11:14:11;8.50;;;6.47;;
47635;SDS011;33364;50.766;15.338;2023-08-30T11:16:37;3.67;;;2.97;;
47635;SDS011;33364;50.766;15.338;2023-08-30T11:19:04;17.08;;;15.32;;
47635;SDS011;33364;50.766;15.338;2023-08-30T11:21:31;5.18;;;4.13;;
47635;SDS011;33364;50.766;15.338;2023-08-30T11:23:58;3.17;;;2.45;;
47635;SDS011;33364;50.766;15.338;2023-08-30T11:26:24;2.97;;;2.00;;
47635;SDS011;33364;50.766;15.338;2023-08-30T11:28:50;3.40;;;2.20;;
47635;SDS011;33364;50.766;15.338;2023-08-30T11:31:19;3.30;;;1.73;;
47635;SDS011;33364;50.766;15.338;2023-08-30T11:36:18;1.10;;;1.00;;
47635;SDS011;33364;50.766;15.338;2023-08-30T11:38:46;2.08;;;1.20;;
47635;SDS011;33364;50.766;15.338;2023-08-30T11:41:12;1.88;;;1.20;;
47635;SDS011;33364;50.766;15.338;2023-08-30T11:43:38;1.20;;;1.08;;
47635;SDS011;33364;50.766;15.338;2023-08-30T11:46:04;1.60;;;1.08;;
47635;SDS011;33364;50.766;15.338;2023-08-30T11:48:30;0.90;;;0.85;;
47635;SDS011;33364;50.766;15.338;2023-08-30T11:50:56;2.13;;;1.20;;
47635;SDS011;33364;50.766;15.338;2023-08-30T11:53:22;1.73;;;1.40;;
47635;SDS011;33364;50.766;15.338;2023-08-30T11:55:48;1.50;;;1.30;;
47635;SDS011;33364;50.766;15.338;2023-08-30T11:58:14;1.50;;;1.30;;
47635;SDS011;33364;50.766;15.338;2023-08-30T12:00:40;1.90;;;1.73;;
47635;SDS011;33364;50.766;15.338;2023-08-30T12:03:06;2.30;;;1.88;;
47635;SDS011;33364;50.766;15.338;2023-08-30T12:05:32;1.50;;;1.40;;
47635;SDS011;33364;50.766;15.338;2023-08-30T12:08:00;1.88;;;1.50;;
47635;SDS011;33364;50.766;15.338;2023-08-30T12:10:28;1.80;;;1.42;;
47635;SDS011;33364;50.766;15.338;2023-08-30T12:12:55;1.77;;;1.67;;
47635;SDS011;33364;50.766;15.338;2023-08-30T12:15:22;1.63;;;1.42;;
47635;SDS011;33364;50.766;15.338;2023-08-30T12:17:49;3.92;;;1.67;;
47635;SDS011;33364;50.766;15.338;2023-08-30T12:20:16;2.25;;;1.65;;
47635;SDS011;33364;50.766;15.338;2023-08-30T12:22:49;2.35;;;1.58;;
47635;SDS011;33364;50.766;15.338;2023-08-30T12:25:17;2.70;;;1.73;;
47635;SDS011;33364;50.766;15.338;2023-08-30T12:27:43;1.83;;;1.35;;
47635;SDS011;33364;50.766;15.338;2023-08-30T12:30:09;1.45;;;1.35;;
47635;SDS011;33364;50.766;15.338;2023-08-30T12:32:35;2.45;;;1.73;;
47635;SDS011;33364;50.766;15.338;2023-08-30T12:35:01;3.80;;;1.60;;
47635;SDS011;33364;50.766;15.338;2023-08-30T12:37:26;2.85;;;1.67;;
47635;SDS011;33364;50.766;15.338;2023-08-30T12:39:52;2.30;;;1.58;;
47635;SDS011;33364;50.766;15.338;2023-08-30T12:42:18;3.30;;;1.70;;
47635;SDS011;33364;50.766;15.338;2023-08-30T12:44:44;3.20;;;2.40;;
47635;SDS011;33364;50.766;15.338;2023-08-30T12:47:10;4.47;;;1.95;;
47635;SDS011;33364;50.766;15.338;2023-08-30T12:49:39;2.63;;;2.08;;
47635;SDS011;33364;50.766;15.338;2023-08-30T12:52:05;3.45;;;2.15;;
47635;SDS011;33364;50.766;15.338;2023-08-30T12:54:31;4.07;;;2.47;;
47635;SDS011;33364;50.766;15.338;2023-08-30T12:56:57;5.30;;;2.47;;
47635;SDS011;33364;50.766;15.338;2023-08-30T12:59:23;4.00;;;2.33;;
47635;SDS011;33364;50.766;15.338;2023-08-30T13:01:49;5.82;;;3.20;;
47635;SDS011;33364;50.766;15.338;2023-08-30T13:04:15;9.13;;;3.50;;
47635;SDS011;33364;50.766;15.338;2023-08-30T13:06:41;6.35;;;3.45;;
47635;SDS011;33364;50.766;15.338;2023-08-30T13:09:07;4.55;;;3.60;;
47635;SDS011;33364;50.766;15.338;2023-08-30T13:11:32;5.13;;;3.42;;
47635;SDS011;33364;50.766;15.338;2023-08-30T13:13:58;6.90;;;3.65;;
47635;SDS011;33364;50.766;15.338;2023-08-30T13:16:24;5.72;;;4.03;;
47635;SDS011;33364;50.766;15.338;2023-08-30T13:18:50;11.82;;;4.05;;
47635;SDS011;33364;50.766;15.338;2023-08-30T13:21:16;8.27;;;4.18;;
47635;SDS011;33364;50.766;15.338;2023-08-30T13:23:42;7.82;;;3.20;;
47635;SDS011;33364;50.766;15.338;2023-08-30T13:26:07;9.15;;;3.63;;
47635;SDS011;33364;50.766;15.338;2023-08-30T13:28:33;6.53;;;3.90;;
47635;SDS011;33364;50.766;15.338;2023-08-30T13:30:59;4.57;;;3.53;;
47635;SDS011;33364;50.766;15.338;2023-08-30T13:33:26;7.93;;;3.00;;
47635;SDS011;33364;50.766;15.338;2023-08-30T13:35:52;5.68;;;3.83;;
47635;SDS011;33364;50.766;15.338;2023-08-30T13:38:19;6.72;;;4.13;;
47635;SDS011;33364;50.766;15.338;2023-08-30T13:40:45;9.32;;;6.60;;
47635;SDS011;33364;50.766;15.338;2023-08-30T13:43:11;6.40;;;5.68;;
47635;SDS011;33364;50.766;15.338;2023-08-30T13:45:36;8.23;;;5.47;;
47635;SDS011;33364;50.766;15.338;2023-08-30T13:48:02;6.97;;;5.72;;
47635;SDS011;33364;50.766;15.338;2023-08-30T13:50:28;9.25;;;7.05;;
47635;SDS011;33364;50.766;15.338;2023-08-30T13:52:57;9.10;;;7.25;;
47635;SDS011;33364;50.766;15.338;2023-08-30T13:55:24;8.93;;;6.78;;
47635;SDS011;33364;50.766;15.338;2023-08-30T13:57:50;7.75;;;6.25;;
47635;SDS011;33364;50.766;15.338;2023-08-30T14:00:16;8.43;;;6.97;;
47635;SDS011;33364;50.766;15.338;2023-08-30T14:02:42;10.82;;;6.90;;
47635;SDS011;33364;50.766;15.338;2023-08-30T14:05:08;7.88;;;6.45;;
47635;SDS011;33364;50.766;15.338;2023-08-30T14:07:34;7.82;;;6.65;;
47635;SDS011;33364;50.766;15.338;2023-08-30T14:10:00;6.50;;;5.85;;
47635;SDS011;33364;50.766;15.338;2023-08-30T14:12:26;8.52;;;5.57;;
47635;SDS011;33364;50.766;15.338;2023-08-30T14:14:51;10.05;;;6.20;;
47635;SDS011;33364;50.766;15.338;2023-08-30T14:17:19;6.93;;;5.13;;
47635;SDS011;33364;50.766;15.338;2023-08-30T14:19:44;6.75;;;5.47;;
47635;SDS011;33364;50.766;15.338;2023-08-30T14:22:10;7.85;;;5.30;;
47635;SDS011;33364;50.766;15.338;2023-08-30T14:24:36;5.88;;;4.63;;
47635;SDS011;33364;50.766;15.338;2023-08-30T14:27:02;7.72;;;4.88;;
47635;SDS011;33364;50.766;15.338;2023-08-30T14:29:28;5.40;;;4.40;;
47635;SDS011;33364;50.766;15.338;2023-08-30T14:31:54;4.90;;;4.20;;
47635;SDS011;33364;50.766;15.338;2023-08-30T14:34:22;5.22;;;3.75;;
47635;SDS011;33364;50.766;15.338;2023-08-30T14:36:48;19.50;;;5.13;;
47635;SDS011;33364;50.766;15.338;2023-08-30T14:39:14;7.53;;;3.67;;
47635;SDS011;33364;50.766;15.338;2023-08-30T14:41:40;4.43;;;4.00;;
47635;SDS011;33364;50.766;15.338;2023-08-30T14:44:06;4.68;;;3.92;;